Airfield :
LOGIN :

Register | Disclaimer

   EN    FR    IT 

 










Legend :    VFR   Marginal VFR   IFR   Intensive IFR   Very Intensive IFR
Visi :
Ceiling :
>= 8 km
>= 3000ft
5 to 8 km
1000 to 3000 ft
1500m to 5 km
500 to 1000 ft
800 to 1500m
200 to 500 ft
< 800m
< 200 ft
Symbols :   Thunderstorms  Fog  Heavy snow  Heavy precipitations  Wind > 20 kt
SIGMETs :     Misc.  Thunderstorms  Icing  Turbulence  Mountain Waves  Volcanic Ashes







- Airport Elevation : 235 ft
- IATA code : BZG


EPBY - Bydgoszcz

CURRENT METAR :
  • 190600Z 27011KT 9999 FEW024 03/01 Q1019

EXPIRED METARs :
  • 190530Z 27012KT 9999 FEW021 SCT026 03/01 Q1018
  • 190500Z 27012KT 9999 SCT012 02/00 Q1018
  • 190430Z 27013KT 9999 BKN011 OVC014 03/01 Q1017
  • 190400Z 26011KT 9999 BKN011 03/01 Q1017
  • 190330Z 26013KT 9999 BKN011 03/01 Q1016

TAF TAF EPBY
Valid from the 19 at 06:00 until the 20 at 06:00 UTC


190530Z 1906/2006 27012KT CAVOK
TEMPO 1908/1915 28015G26KT -SHRA BKN025CB
BECMG 1918/1920 26002KT
BECMG 2001/2003 2000 BR
PROB40 2003/2006 0400 FZFG
No reported NOTAMs for that airfield.



MET'MAP, your aeronautical weather chart ! - Copyright ORBIFLY December 2007 - Disclaimer

ORBIFLY MET'MAP TEAM :

Programming & Development : Alexandra Zaïnal
Concept & Development : Baudouin d'Aumeries
Co-Development & Prog : Marc-Olivier Méhu
Technical & hardware support : Manuel Goepfert

Contact : metmap@orbifly.com




SOURCES & CREDITS :

   NOAA